Pilot Vessel Akarana — ZMT2938 — position and weather

sailwx.info

Track history (hours):
 
Tides and Currents Weather Stations Pressure Air Temp Water Temp Dewpoint Dewpoint Depression Visibility Wind Speed Wind Dir Waves Ship Positions

Pilot Vessel Akarana

Last reported at 2014-Jul-26 08:13 UTC. Time now 2014-Jul-26 09:10 UTC.
Position S 36°48' E 174°49'.

Length 15 m; draft 1.6 m.

Type: Pilot. MMSI: 512000344.

Date/timePositionNaut miles runAvg speedWind from/ knotsBaromVisibWave heightAir tempDewpointWater temp
2014-Jul-26 08:13S 36°48' E 174°49'2 1.4
2014-Jul-26 06:25S 36°50' E 174°47'2 0.7
2014-Jul-26 04:09S 36°49' E 174°49'3 1.3
2014-Jul-26 01:32S 36°46' E 174°49'1 0.1
2014-Jul-25 17:07S 36°46' E 174°50'0 0.1
2014-Jul-25 12:32S 36°46' E 174°49'5 0.6
2014-Jul-25 04:10S 36°51' E 174°47'3 5.2
2014-Jul-25 03:32S 36°48' E 174°49'0 0.0
2014-Jul-24 16:32S 36°48' E 174°49'1 0.1
2014-Jul-24 10:13S 36°48' E 174°48'3 0.2
2014-Jul-23 21:32S 36°45' E 174°50'6 2.1
2014-Jul-23 18:30S 36°51' E 174°47'4 3.7
2014-Jul-23 17:26S 36°47' E 174°49'2 0.9
2014-Jul-23 15:33S 36°49' E 174°49'3 1.8
2014-Jul-23 14:07S 36°51' E 174°47'2 3.1
2014-Jul-23 13:28S 36°49' E 174°49'2 1.6
2014-Jul-23 12:11S 36°51' E 174°47'0 0.0
2014-Jul-23 10:33S 36°51' E 174°47'5 1.6
2014-Jul-23 07:32S 36°46' E 174°49'2 0.4
2014-Jul-23 02:25S 36°48' E 174°49'2 1.1
2014-Jul-23 00:31S 36°46' E 174°50'5 2.1
2014-Jul-22 22:14S 36°50' E 174°47'2 0.5
2014-Jul-22 18:23S 36°49' E 174°49'4 4.1
2014-Jul-22 17:32S 36°46' E 174°49'2 0.3
2014-Jul-22 11:33S 36°47' E 174°48'3 0.3
2014-Jul-22 01:18S 36°50' E 174°47'1 0.2
2014-Jul-21 22:07S 36°50' E 174°46'1 0.6
2014-Jul-21 21:13S 36°50' E 174°47'2 2.7
2014-Jul-21 20:29S 36°49' E 174°49'422.9
2014-Jul-21 20:18S 36°45' E 174°50'6 7.5
2014-Jul-21 19:33S 36°49' E 174°55'6 5.5
2014-Jul-21 18:31S 36°46' E 174°49'2 2.0
2014-Jul-21 17:30S 36°48' E 174°48'3 3.2
2014-Jul-21 16:32S 36°51' E 174°47'1 0.4
2014-Jul-21 15:19S 36°50' E 174°47'2 0.2
2014-Jul-21 05:21S 36°50' E 174°50'2 0.4
2014-Jul-21 00:16S 36°50' E 174°47'6 1.1
2014-Jul-20 18:25S 36°45' E 174°50'6 1.9
2014-Jul-20 15:05S 36°50' E 174°47'3 4.1
2014-Jul-20 14:19S 36°48' E 174°49'3 3.5
2014-Jul-20 13:20S 36°51' E 174°47'3 0.4
2014-Jul-20 06:33S 36°49' E 174°49'2 1.5
2014-Jul-20 05:04S 36°50' E 174°47'4 6.6
2014-Jul-20 04:29S 36°47' E 174°49'1 0.1
2014-Jul-19 20:22S 36°47' E 174°48'4 4.6
2014-Jul-19 19:32S 36°44' E 174°51'5 2.3
2014-Jul-19 17:32S 36°48' E 174°49'2 0.3
2014-Jul-19 08:24S 36°46' E 174°49'2 0.8
2014-Jul-19 06:21S 36°47' E 174°48'1 1.4
2014-Jul-19 05:22S 36°46' E 174°50'1 0.2
2014-Jul-19 00:04S 36°47' E 174°49'0 0.6
2014-Jul-18 23:14S 36°48' E 174°49'3 1.1
2014-Jul-18 20:14S 36°50' E 174°46'3 0.4
2014-Jul-18 13:33S 36°49' E 174°49'2 2.3
2014-Jul-18 12:32S 36°46' E 174°49'4 4.4
2014-Jul-18 11:31S 36°51' E 174°47'5 0.9
2014-Jul-18 05:33S 36°46' E 174°49'5 1.0
2014-Jul-18 00:14S 36°51' E 174°47'2 0.9
2014-Jul-17 21:30S 36°49' E 174°49'2 1.2
2014-Jul-17 19:29S 36°51' E 174°47'2 0.2
2014-Jul-17 09:25S 36°49' E 174°49'5 1.6
2014-Jul-17 06:33S 36°45' E 174°50'6 1.2
2014-Jul-17 01:06S 36°51' E 174°47'3 6.1
2014-Jul-17 00:33S 36°48' E 174°49'1 0.5
2014-Jul-16 22:05S 36°49' E 174°49'3 5.7
2014-Jul-16 21:33S 36°46' E 174°50'5 5.2
2014-Jul-16 20:33S 36°51' E 174°47'3 2.8
2014-Jul-16 19:28S 36°48' E 174°49'3 0.3
2014-Jul-16 10:09S 36°51' E 174°47'  
Track history (hours):
 
Tides and Currents Weather Stations Pressure Air Temp Water Temp Dewpoint Dewpoint Depression Visibility Wind Speed Wind Dir Waves Ship Positions

Pilot Vessel Akarana

Last reported at 2014-Jul-26 08:13 UTC. Time now 2014-Jul-26 09:10 UTC.
Position S 36°48' E 174°49'.

Length 15 m; draft 1.6 m.

Type: Pilot. MMSI: 512000344.

Date/timePositionNaut miles runAvg speedWind from/ knotsBaromVisibWave heightAir tempDewpointWater temp
2014-Jul-26 08:13S 36°48' E 174°49'2 1.4
2014-Jul-26 06:25S 36°50' E 174°47'2 0.7
2014-Jul-26 04:09S 36°49' E 174°49'3 1.3
2014-Jul-26 01:32S 36°46' E 174°49'1 0.1
2014-Jul-25 17:07S 36°46' E 174°50'0 0.1
2014-Jul-25 12:32S 36°46' E 174°49'5 0.6
2014-Jul-25 04:10S 36°51' E 174°47'3 5.2
2014-Jul-25 03:32S 36°48' E 174°49'0 0.0
2014-Jul-24 16:32S 36°48' E 174°49'1 0.1
2014-Jul-24 10:13S 36°48' E 174°48'3 0.2
2014-Jul-23 21:32S 36°45' E 174°50'6 2.1
2014-Jul-23 18:30S 36°51' E 174°47'4 3.7
2014-Jul-23 17:26S 36°47' E 174°49'2 0.9
2014-Jul-23 15:33S 36°49' E 174°49'3 1.8
2014-Jul-23 14:07S 36°51' E 174°47'2 3.1
2014-Jul-23 13:28S 36°49' E 174°49'2 1.6
2014-Jul-23 12:11S 36°51' E 174°47'0 0.0
2014-Jul-23 10:33S 36°51' E 174°47'5 1.6
2014-Jul-23 07:32S 36°46' E 174°49'2 0.4
2014-Jul-23 02:25S 36°48' E 174°49'2 1.1
2014-Jul-23 00:31S 36°46' E 174°50'5 2.1
2014-Jul-22 22:14S 36°50' E 174°47'2 0.5
2014-Jul-22 18:23S 36°49' E 174°49'4 4.1
2014-Jul-22 17:32S 36°46' E 174°49'2 0.3
2014-Jul-22 11:33S 36°47' E 174°48'3 0.3
2014-Jul-22 01:18S 36°50' E 174°47'1 0.2
2014-Jul-21 22:07S 36°50' E 174°46'1 0.6
2014-Jul-21 21:13S 36°50' E 174°47'2 2.7
2014-Jul-21 20:29S 36°49' E 174°49'422.9
2014-Jul-21 20:18S 36°45' E 174°50'6 7.5
2014-Jul-21 19:33S 36°49' E 174°55'6 5.5
2014-Jul-21 18:31S 36°46' E 174°49'2 2.0
2014-Jul-21 17:30S 36°48' E 174°48'3 3.2
2014-Jul-21 16:32S 36°51' E 174°47'1 0.4
2014-Jul-21 15:19S 36°50' E 174°47'2 0.2
2014-Jul-21 05:21S 36°50' E 174°50'2 0.4
2014-Jul-21 00:16S 36°50' E 174°47'6 1.1
2014-Jul-20 18:25S 36°45' E 174°50'6 1.9
2014-Jul-20 15:05S 36°50' E 174°47'3 4.1
2014-Jul-20 14:19S 36°48' E 174°49'3 3.5
2014-Jul-20 13:20S 36°51' E 174°47'3 0.4
2014-Jul-20 06:33S 36°49' E 174°49'2 1.5
2014-Jul-20 05:04S 36°50' E 174°47'4 6.6
2014-Jul-20 04:29S 36°47' E 174°49'1 0.1
2014-Jul-19 20:22S 36°47' E 174°48'4 4.6
2014-Jul-19 19:32S 36°44' E 174°51'5 2.3
2014-Jul-19 17:32S 36°48' E 174°49'2 0.3
2014-Jul-19 08:24S 36°46' E 174°49'2 0.8
2014-Jul-19 06:21S 36°47' E 174°48'1 1.4
2014-Jul-19 05:22S 36°46' E 174°50'1 0.2
2014-Jul-19 00:04S 36°47' E 174°49'0 0.6
2014-Jul-18 23:14S 36°48' E 174°49'3 1.1
2014-Jul-18 20:14S 36°50' E 174°46'3 0.4
2014-Jul-18 13:33S 36°49' E 174°49'2 2.3
2014-Jul-18 12:32S 36°46' E 174°49'4 4.4
2014-Jul-18 11:31S 36°51' E 174°47'5 0.9
2014-Jul-18 05:33S 36°46' E 174°49'5 1.0
2014-Jul-18 00:14S 36°51' E 174°47'2 0.9
2014-Jul-17 21:30S 36°49' E 174°49'2 1.2
2014-Jul-17 19:29S 36°51' E 174°47'2 0.2
2014-Jul-17 09:25S 36°49' E 174°49'5 1.6
2014-Jul-17 06:33S 36°45' E 174°50'6 1.2
2014-Jul-17 01:06S 36°51' E 174°47'3 6.1
2014-Jul-17 00:33S 36°48' E 174°49'1 0.5
2014-Jul-16 22:05S 36°49' E 174°49'3 5.7
2014-Jul-16 21:33S 36°46' E 174°50'5 5.2
2014-Jul-16 20:33S 36°51' E 174°47'3 2.8
2014-Jul-16 19:28S 36°48' E 174°49'3 0.3
2014-Jul-16 10:09S 36°51' E 174°47'  

Dump ship's entire track history